createdAt,value
2022-09-11T09:26:49.773Z,98544.92
2022-09-11T09:29:36.447Z,98541.23
2022-09-11T09:32:23.369Z,98542.55
2022-09-11T09:35:10.053Z,98539.36
2022-09-11T09:37:56.814Z,98537.65
2022-09-11T09:40:43.531Z,98552.67
2022-09-11T09:43:26.609Z,98575.17
2022-09-11T09:46:13.394Z,98582.94
2022-09-11T09:49:00.143Z,98576.19
2022-09-11T09:51:47.084Z,98577.81
2022-09-11T09:54:33.750Z,98577.52
2022-09-11T09:57:20.561Z,98572.39
2022-09-11T10:00:07.231Z,98572.40
2022-09-11T10:02:53.932Z,98568.42
2022-09-11T10:05:40.694Z,98568.89
2022-09-11T10:08:27.406Z,98572.50
2022-09-11T10:11:14.122Z,98573.55
2022-09-11T10:14:00.793Z,98578.64
2022-09-11T10:16:47.558Z,98581.73
2022-09-11T10:19:34.370Z,98586.69
2022-09-11T10:22:21.307Z,98580.32
2022-09-11T10:25:07.998Z,98580.21
2022-09-11T10:27:54.727Z,98587.34
2022-09-11T10:30:41.486Z,98584.63
2022-09-11T10:33:28.192Z,98579.60
2022-09-11T10:36:15.504Z,98581.92
2022-09-11T10:39:02.173Z,98580.83
2022-09-11T10:41:48.999Z,98583.75
2022-09-11T10:44:35.682Z,98584.02
2022-09-11T10:47:22.396Z,98589.16
2022-09-11T10:50:09.067Z,98599.06
2022-09-11T10:52:55.830Z,98601.63
2022-09-11T10:55:42.559Z,98602.48
2022-09-11T10:58:29.314Z,98600.52
2022-09-11T11:01:16.096Z,98598.02
2022-09-11T11:04:02.841Z,98607.96
2022-09-11T11:06:49.535Z,98604.56
2022-09-11T11:09:36.204Z,98610.73
2022-09-11T11:12:22.854Z,98610.97
2022-09-11T11:15:09.529Z,98610.48
2022-09-11T11:17:56.219Z,98608.85
2022-09-11T11:20:43.004Z,98612.48
2022-09-11T11:23:29.748Z,98611.20
2022-09-11T11:26:16.501Z,98605.39
2022-09-11T11:29:03.152Z,98610.72
2022-09-11T11:31:49.863Z,98611.42
2022-09-11T11:34:36.634Z,98611.95
2022-09-11T11:37:23.280Z,98609.63
2022-09-11T11:40:10.024Z,98602.43
2022-09-11T11:42:56.714Z,98582.02
2022-09-11T11:45:43.740Z,98590.09
2022-09-11T11:48:30.488Z,98614.52
2022-09-11T11:51:17.209Z,98582.08
2022-09-11T11:54:03.895Z,98600.39
2022-09-11T11:56:50.709Z,98616.91
2022-09-11T11:59:37.361Z,98616.67
2022-09-11T12:02:24.032Z,98621.03
2022-09-11T12:05:10.852Z,98622.31
2022-09-11T12:07:57.491Z,98618.92
2022-09-11T12:10:44.270Z,98618.05
2022-09-11T12:13:30.938Z,98620.42
2022-09-11T12:16:17.701Z,98562.30
2022-09-11T12:19:04.503Z,98561.11
2022-09-11T12:21:51.297Z,98563.41
2022-09-11T12:24:37.951Z,98563.70
2022-09-11T12:27:24.726Z,98567.33
2022-09-11T12:30:11.446Z,98574.01
2022-09-11T12:32:58.236Z,98579.44
2022-09-11T12:35:44.959Z,98583.59
2022-09-11T12:38:31.594Z,98613.19
2022-09-11T12:41:18.261Z,98656.05
2022-09-11T12:44:04.958Z,98659.94
2022-09-11T12:46:52.123Z,98654.73
2022-09-11T12:49:38.811Z,98660.02
2022-09-11T12:52:25.755Z,98654.41
2022-09-11T12:55:12.429Z,98655.61
2022-09-11T12:57:59.129Z,98659.11
2022-09-11T13:00:46.109Z,98659.16
2022-09-11T13:03:32.792Z,98659.12
2022-09-11T13:06:19.547Z,98658.30
2022-09-11T13:09:06.191Z,98662.34
2022-09-11T13:11:52.912Z,98657.36
2022-09-11T13:14:39.575Z,98651.63
2022-09-11T13:17:26.275Z,98658.34
2022-09-11T13:20:12.942Z,98657.42
2022-09-11T13:22:59.697Z,98656.90
2022-09-11T13:25:46.365Z,98659.29
2022-09-11T13:28:33.074Z,98656.02
2022-09-11T13:31:19.815Z,98653.26
2022-09-11T13:34:06.532Z,98655.13
2022-09-11T13:36:56.485Z,98667.63
2022-09-11T13:39:43.568Z,98671.02
2022-09-11T13:42:30.285Z,98679.97
2022-09-11T13:45:16.948Z,98678.48
2022-09-11T13:48:03.598Z,98691.79
